LFOBLIBD

Guest
Details From LFOB - Beauvais-Tille
To LIBD - Bari Palese Macchie
Flight Number -
Tags decoded
Created
Modified
Stats Distance 793 nm / 1,468 km
Max Altitude 0 ft / 0 m
Waypoints 2
Social Downloads 0
Likes 0
Share VATSIM

Download

Looking for another format? Having issues loading an existing format? Contact us
Advertisement - Login to hide

Notes

Requested: LFOB 42 LIBD Unmatched points: 42

Route

LFOB LIBD

ID Type Via Altitude (ft/m) Position (lat/lon) Dist (leg/tot) Name
O LFOB APT - 0 / 0 49.45600 / 2.11891 - / 0 nm Beauvais-Tille
O LIBD APT - 0 / 0 41.13787 / 16.75832 792 / 792 nm Bari Palese Macchie

Altitude Profile

Advertisement - Login to hide

Weather


0- 5 10 15 20 25 30 35+ Temperature / °C

Clouds and Precipitation
Forecast for 2019-04-26 00:00 UTC. Updated 32 minutes ago

Ground ~20,000 ft ~40,000 ft Winds

LFOB

Details ICAO LFOB (BVA)
Name Beauvais-Tille
Region France
Timezone Europe/Paris (UTC+2.0)
Stats Elevation 356 ft / 109 m (AMSL)
Location 49.456000° 2.118920°
Runways 2
Magnetic Variation 0.660° E

METAR

LFOB 252200Z AUTO 19005KT CAVOK 09/07 Q1008 NOSIG

Decode

TAF

TAF LFOB 251700Z 2518/2618 18008KT 9999 SCT020 BKN047 TEMPO 2518/2520 4000 SHRA BKN040CB

Decode

Departure Runways

ID Width Length Bearing (true/mag) Surface Threshold Overrun Markings Lighting
04 98 ft / 30 m 2,336 ft / 712 m 41.42° / 40.76° ASPHALT 0 ft / 0 m 0 ft / 0 m VISUAL
12 148 ft / 45 m 7,957 ft / 2,425 m 123.73° / 123.07° ASPHALT 144 ft / 44 m 0 ft / 0 m PREC-APP CENTERLINE EDGE THRESHOLD ALSF-II TDZ REIL-OMNI
22 98 ft / 30 m 2,336 ft / 712 m 221.42° / 220.76° ASPHALT 0 ft / 0 m 0 ft / 0 m VISUAL
30 148 ft / 45 m 7,957 ft / 2,425 m 303.75° / 303.09° ASPHALT 0 ft / 0 m 0 ft / 0 m PREC-APP CENTERLINE EDGE THRESHOLD ALSF-I TDZ REIL-OMNI

LIBD

Details ICAO LIBD (BRI)
Name Bari Karol Wojtyla
Region Italy
Timezone Europe/Rome (UTC+2.0)
Stats Elevation 174 ft / 53 m (AMSL)
Location 41.137900° 16.758300°
Runways 1
Magnetic Variation 3.877° E

METAR

LIBD 252150Z 18005KT CAVOK 17/13 Q1019

Decode

TAF

TAF LIBD 251700Z 2518/2618 10008KT CAVOK BECMG 2518/2520 17008KT BECMG 2610/2612 11010KT

Decode

Destination Runways

ID Width Length Bearing (true/mag) Surface Threshold Overrun Markings Lighting
07 148 ft / 45 m 9,260 ft / 2,823 m 69.39° / 65.51° ASPHALT 1,220 ft / 372 m 0 ft / 0 m PREC-APP CENTERLINE EDGE THRESHOLD ALSF-II REIL-OMNI
25 148 ft / 45 m 9,260 ft / 2,823 m 249.41° / 245.53° ASPHALT 0 ft / 0 m 0 ft / 0 m PREC-APP CENTERLINE EDGE THRESHOLD SALS REIL-OMNI

Approach Navaids

Runway Type Ident Frequency Range Bearing (true/mag) Slope Elevation
07 GS BAP 111.35 MHz 10 nm / 19 km 69.39° / 65.51 ° 3.32° 175 ft / 53 m (AMSL)
07 LOC-ILS BAP 111.35 MHz 18 nm / 33 km 69.39° / 65.51 ° - 175 ft / 53 m (AMSL)
07 DME BAP 111.35 MHz 18 nm / 33 km - - 183 ft / 56 m (AMSL)
07 OM OM - - 69.25° / 65.37 ° - 177 ft / 54 m (AMSL)

Popular Alternatives